sensor_id;sensor_type;location;lat;lon;timestamp;pressure;altitude;pressure_sealevel;temperature;humidity
15195;BME280;7698;42.478;23.756;2023-04-30T00:00:26;93037.31;;;8.93;100.00
15195;BME280;7698;42.478;23.756;2023-04-30T00:02:54;93038.81;;;8.89;100.00
15195;BME280;7698;42.478;23.756;2023-04-30T00:05:21;93038.69;;;8.95;100.00
15195;BME280;7698;42.478;23.756;2023-04-30T00:07:48;93037.06;;;8.94;100.00
15195;BME280;7698;42.478;23.756;2023-04-30T00:10:15;93041.94;;;8.86;100.00
15195;BME280;7698;42.478;23.756;2023-04-30T00:12:41;93036.09;;;8.72;100.00
15195;BME280;7698;42.478;23.756;2023-04-30T00:15:09;93044.31;;;8.59;100.00
15195;BME280;7698;42.478;23.756;2023-04-30T00:17:36;93045.84;;;8.43;100.00
15195;BME280;7698;42.478;23.756;2023-04-30T00:20:06;93040.16;;;8.51;100.00
15195;BME280;7698;42.478;23.756;2023-04-30T00:22:33;93047.22;;;8.45;100.00
15195;BME280;7698;42.478;23.756;2023-04-30T00:24:59;93036.47;;;8.40;100.00
15195;BME280;7698;42.478;23.756;2023-04-30T00:27:26;93034.50;;;8.36;100.00
15195;BME280;7698;42.478;23.756;2023-04-30T00:29:53;93034.59;;;8.29;100.00
15195;BME280;7698;42.478;23.756;2023-04-30T00:32:20;93037.13;;;8.24;100.00
15195;BME280;7698;42.478;23.756;2023-04-30T00:34:47;93041.53;;;8.19;100.00
15195;BME280;7698;42.478;23.756;2023-04-30T00:37:15;93044.66;;;8.15;100.00
15195;BME280;7698;42.478;23.756;2023-04-30T00:39:42;93044.31;;;8.12;100.00
15195;BME280;7698;42.478;23.756;2023-04-30T00:42:08;93047.44;;;8.09;100.00
15195;BME280;7698;42.478;23.756;2023-04-30T00:44:35;93044.41;;;8.05;100.00
15195;BME280;7698;42.478;23.756;2023-04-30T00:47:02;93041.97;;;8.04;100.00
15195;BME280;7698;42.478;23.756;2023-04-30T00:49:29;93045.09;;;8.01;100.00
15195;BME280;7698;42.478;23.756;2023-04-30T00:51:55;93040.81;;;8.00;100.00
15195;BME280;7698;42.478;23.756;2023-04-30T00:54:24;93034.34;;;7.96;100.00
15195;BME280;7698;42.478;23.756;2023-04-30T00:56:51;93040.16;;;7.93;100.00
15195;BME280;7698;42.478;23.756;2023-04-30T00:59:18;93046.38;;;7.87;100.00
15195;BME280;7698;42.478;23.756;2023-04-30T01:01:45;93038.72;;;7.78;100.00
15195;BME280;7698;42.478;23.756;2023-04-30T01:04:11;93037.56;;;7.74;100.00
15195;BME280;7698;42.478;23.756;2023-04-30T01:06:38;93045.41;;;7.69;100.00
15195;BME280;7698;42.478;23.756;2023-04-30T01:09:06;93040.53;;;7.66;100.00
15195;BME280;7698;42.478;23.756;2023-04-30T01:11:42;93040.22;;;7.63;100.00
15195;BME280;7698;42.478;23.756;2023-04-30T01:14:21;93043.91;;;7.62;100.00
15195;BME280;7698;42.478;23.756;2023-04-30T01:17:00;93050.03;;;7.62;100.00
15195;BME280;7698;42.478;23.756;2023-04-30T01:19:37;93041.59;;;7.65;100.00
15195;BME280;7698;42.478;23.756;2023-04-30T01:22:08;93036.84;;;7.67;100.00
15195;BME280;7698;42.478;23.756;2023-04-30T01:24:50;93034.78;;;7.69;100.00
15195;BME280;7698;42.478;23.756;2023-04-30T01:30:25;93033.16;;;7.68;100.00
15195;BME280;7698;42.478;23.756;2023-04-30T01:32:52;93035.34;;;7.71;100.00
15195;BME280;7698;42.478;23.756;2023-04-30T01:35:19;93030.72;;;7.67;100.00
15195;BME280;7698;42.478;23.756;2023-04-30T01:37:51;93042.63;;;7.64;100.00
15195;BME280;7698;42.478;23.756;2023-04-30T01:40:30;93030.50;;;7.68;100.00
15195;BME280;7698;42.478;23.756;2023-04-30T01:43:07;93035.34;;;7.71;100.00
15195;BME280;7698;42.478;23.756;2023-04-30T01:45:58;93035.94;;;7.73;100.00
15195;BME280;7698;42.478;23.756;2023-04-30T01:48:47;93035.72;;;7.75;100.00
15195;BME280;7698;42.478;23.756;2023-04-30T01:51:20;93034.91;;;7.74;100.00
15195;BME280;7698;42.478;23.756;2023-04-30T01:53:48;93035.47;;;7.76;100.00
15195;BME280;7698;42.478;23.756;2023-04-30T01:56:20;93025.66;;;7.77;100.00
15195;BME280;7698;42.478;23.756;2023-04-30T01:58:51;93024.28;;;7.74;100.00
15195;BME280;7698;42.478;23.756;2023-04-30T02:01:26;93025.53;;;7.72;100.00
15195;BME280;7698;42.478;23.756;2023-04-30T02:03:53;93028.78;;;7.74;100.00
15195;BME280;7698;42.478;23.756;2023-04-30T02:06:20;93032.47;;;7.73;100.00
15195;BME280;7698;42.478;23.756;2023-04-30T02:08:47;93025.31;;;7.73;100.00
15195;BME280;7698;42.478;23.756;2023-04-30T02:11:14;93027.97;;;7.73;100.00
15195;BME280;7698;42.478;23.756;2023-04-30T02:13:40;93028.41;;;7.70;100.00
15195;BME280;7698;42.478;23.756;2023-04-30T02:16:07;93026.69;;;7.64;100.00
15195;BME280;7698;42.478;23.756;2023-04-30T02:18:36;93025.97;;;7.57;100.00
15195;BME280;7698;42.478;23.756;2023-04-30T02:21:03;93028.59;;;7.45;100.00
15195;BME280;7698;42.478;23.756;2023-04-30T02:23:30;93026.50;;;7.36;100.00
15195;BME280;7698;42.478;23.756;2023-04-30T02:25:56;93035.97;;;7.32;100.00
15195;BME280;7698;42.478;23.756;2023-04-30T02:28:23;93030.06;;;7.30;100.00
15195;BME280;7698;42.478;23.756;2023-04-30T02:30:50;93026.81;;;7.28;100.00
15195;BME280;7698;42.478;23.756;2023-04-30T02:33:17;93029.34;;;7.23;100.00
15195;BME280;7698;42.478;23.756;2023-04-30T02:35:45;93028.16;;;7.19;100.00
15195;BME280;7698;42.478;23.756;2023-04-30T02:38:12;93029.53;;;7.09;100.00
15195;BME280;7698;42.478;23.756;2023-04-30T02:40:40;93018.06;;;6.97;100.00
15195;BME280;7698;42.478;23.756;2023-04-30T02:43:07;93027.72;;;6.92;100.00
15195;BME280;7698;42.478;23.756;2023-04-30T02:45:34;93032.88;;;6.87;100.00
15195;BME280;7698;42.478;23.756;2023-04-30T02:48:01;93025.84;;;6.81;100.00
15195;BME280;7698;42.478;23.756;2023-04-30T02:50:27;93035.72;;;6.73;100.00
15195;BME280;7698;42.478;23.756;2023-04-30T02:52:56;93040.00;;;6.56;100.00
15195;BME280;7698;42.478;23.756;2023-04-30T02:55:23;93036.97;;;6.53;100.00
15195;BME280;7698;42.478;23.756;2023-04-30T02:57:49;93042.72;;;6.50;100.00
15195;BME280;7698;42.478;23.756;2023-04-30T03:00:16;93046.25;;;6.43;100.00
15195;BME280;7698;42.478;23.756;2023-04-30T03:02:43;93050.00;;;6.36;100.00
15195;BME280;7698;42.478;23.756;2023-04-30T03:05:10;93050.06;;;6.29;100.00
15195;BME280;7698;42.478;23.756;2023-04-30T03:07:37;93056.09;;;6.18;100.00
15195;BME280;7698;42.478;23.756;2023-04-30T03:10:07;93050.03;;;6.11;100.00
15195;BME280;7698;42.478;23.756;2023-04-30T03:12:34;93056.16;;;6.11;100.00
15195;BME280;7698;42.478;23.756;2023-04-30T03:15:01;93050.81;;;6.18;100.00
15195;BME280;7698;42.478;23.756;2023-04-30T03:17:28;93048.75;;;6.20;100.00
15195;BME280;7698;42.478;23.756;2023-04-30T03:19:54;93064.13;;;6.30;100.00
15195;BME280;7698;42.478;23.756;2023-04-30T03:22:21;93059.13;;;6.40;100.00
15195;BME280;7698;42.478;23.756;2023-04-30T03:24:51;93058.75;;;6.36;100.00
15195;BME280;7698;42.478;23.756;2023-04-30T03:27:19;93061.41;;;6.36;100.00
15195;BME280;7698;42.478;23.756;2023-04-30T03:29:46;93060.38;;;6.37;100.00
15195;BME280;7698;42.478;23.756;2023-04-30T03:32:13;93064.66;;;6.38;100.00
15195;BME280;7698;42.478;23.756;2023-04-30T03:34:40;93054.66;;;6.40;100.00
15195;BME280;7698;42.478;23.756;2023-04-30T03:37:06;93060.53;;;6.42;100.00
15195;BME280;7698;42.478;23.756;2023-04-30T03:39:33;93061.50;;;6.48;100.00
15195;BME280;7698;42.478;23.756;2023-04-30T03:42:00;93073.31;;;6.52;100.00
15195;BME280;7698;42.478;23.756;2023-04-30T03:44:29;93070.56;;;6.59;100.00
15195;BME280;7698;42.478;23.756;2023-04-30T03:46:56;93074.09;;;6.71;100.00
15195;BME280;7698;42.478;23.756;2023-04-30T03:49:23;93080.88;;;6.85;100.00
15195;BME280;7698;42.478;23.756;2023-04-30T03:51:50;93090.91;;;7.01;100.00
15195;BME280;7698;42.478;23.756;2023-04-30T03:54:16;93093.97;;;7.17;100.00
15195;BME280;7698;42.478;23.756;2023-04-30T03:56:43;93088.50;;;7.30;100.00
15195;BME280;7698;42.478;23.756;2023-04-30T03:59:10;93093.84;;;7.41;100.00
15195;BME280;7698;42.478;23.756;2023-04-30T04:01:39;93091.22;;;7.53;100.00
15195;BME280;7698;42.478;23.756;2023-04-30T04:04:06;93099.00;;;7.66;100.00
15195;BME280;7698;42.478;23.756;2023-04-30T04:06:33;93097.56;;;7.82;100.00
15195;BME280;7698;42.478;23.756;2023-04-30T04:08:59;93097.09;;;7.97;100.00
15195;BME280;7698;42.478;23.756;2023-04-30T04:11:26;93097.38;;;8.07;100.00
15195;BME280;7698;42.478;23.756;2023-04-30T04:13:53;93100.59;;;8.21;100.00
15195;BME280;7698;42.478;23.756;2023-04-30T04:16:20;93092.06;;;8.30;100.00
15195;BME280;7698;42.478;23.756;2023-04-30T04:18:48;93091.41;;;8.35;100.00
15195;BME280;7698;42.478;23.756;2023-04-30T04:21:15;93095.34;;;8.32;100.00
15195;BME280;7698;42.478;23.756;2023-04-30T04:23:42;93095.34;;;8.32;100.00
15195;BME280;7698;42.478;23.756;2023-04-30T04:26:09;93096.16;;;8.33;100.00
15195;BME280;7698;42.478;23.756;2023-04-30T04:28:36;93102.41;;;8.38;100.00
15195;BME280;7698;42.478;23.756;2023-04-30T04:31:04;93099.84;;;8.43;100.00
15195;BME280;7698;42.478;23.756;2023-04-30T04:33:30;93105.41;;;8.54;100.00
15195;BME280;7698;42.478;23.756;2023-04-30T04:35:59;93103.44;;;8.61;100.00
15195;BME280;7698;42.478;23.756;2023-04-30T04:38:26;93101.25;;;8.69;100.00
15195;BME280;7698;42.478;23.756;2023-04-30T04:40:53;93109.66;;;9.01;100.00
15195;BME280;7698;42.478;23.756;2023-04-30T04:43:20;93105.19;;;9.19;100.00
15195;BME280;7698;42.478;23.756;2023-04-30T04:45:47;93110.81;;;9.34;100.00
15195;BME280;7698;42.478;23.756;2023-04-30T04:48:14;93105.22;;;9.47;100.00
15195;BME280;7698;42.478;23.756;2023-04-30T04:50:42;93111.06;;;9.61;100.00
15195;BME280;7698;42.478;23.756;2023-04-30T04:53:10;93106.47;;;9.84;100.00
15195;BME280;7698;42.478;23.756;2023-04-30T04:55:38;93106.81;;;10.05;100.00
15195;BME280;7698;42.478;23.756;2023-04-30T04:58:05;93111.19;;;10.44;100.00
15195;BME280;7698;42.478;23.756;2023-04-30T05:00:32;93118.28;;;10.89;100.00
15195;BME280;7698;42.478;23.756;2023-04-30T05:02:59;93115.81;;;11.04;100.00
15195;BME280;7698;42.478;23.756;2023-04-30T05:05:26;93113.69;;;11.45;100.00
15195;BME280;7698;42.478;23.756;2023-04-30T05:07:53;93110.72;;;11.68;100.00
15195;BME280;7698;42.478;23.756;2023-04-30T05:10:21;93109.06;;;11.62;100.00
15195;BME280;7698;42.478;23.756;2023-04-30T05:12:48;93112.97;;;11.54;100.00
15195;BME280;7698;42.478;23.756;2023-04-30T05:15:15;93117.19;;;11.72;100.00
15195;BME280;7698;42.478;23.756;2023-04-30T05:17:42;93111.84;;;11.94;98.75
15195;BME280;7698;42.478;23.756;2023-04-30T05:20:10;93115.31;;;11.95;96.82
15195;BME280;7698;42.478;23.756;2023-04-30T05:22:38;93119.56;;;11.91;96.20
15195;BME280;7698;42.478;23.756;2023-04-30T05:25:05;93125.09;;;11.84;96.87
15195;BME280;7698;42.478;23.756;2023-04-30T05:27:34;93123.66;;;11.76;98.40
15195;BME280;7698;42.478;23.756;2023-04-30T05:30:01;93122.06;;;11.75;100.00
15195;BME280;7698;42.478;23.756;2023-04-30T05:32:28;93115.34;;;11.73;100.00
15195;BME280;7698;42.478;23.756;2023-04-30T05:34:55;93127.28;;;11.87;100.00
15195;BME280;7698;42.478;23.756;2023-04-30T05:37:22;93118.06;;;12.00;100.00
15195;BME280;7698;42.478;23.756;2023-04-30T05:39:49;93126.66;;;12.07;100.00
15195;BME280;7698;42.478;23.756;2023-04-30T05:42:18;93118.56;;;11.97;100.00
15195;BME280;7698;42.478;23.756;2023-04-30T05:44:47;93116.88;;;11.91;100.00
15195;BME280;7698;42.478;23.756;2023-04-30T05:47:14;93118.38;;;12.08;100.00
15195;BME280;7698;42.478;23.756;2023-04-30T05:49:41;93119.28;;;12.19;100.00
15195;BME280;7698;42.478;23.756;2023-04-30T05:52:08;93123.19;;;12.70;100.00
15195;BME280;7698;42.478;23.756;2023-04-30T05:54:35;93132.38;;;13.74;97.15
15195;BME280;7698;42.478;23.756;2023-04-30T05:57:02;93128.84;;;14.46;90.28
15195;BME280;7698;42.478;23.756;2023-04-30T05:59:29;93128.56;;;14.98;86.89
15195;BME280;7698;42.478;23.756;2023-04-30T06:01:58;93129.78;;;15.62;85.93
15195;BME280;7698;42.478;23.756;2023-04-30T06:04:25;93127.28;;;15.85;82.51
15195;BME280;7698;42.478;23.756;2023-04-30T06:06:51;93134.34;;;15.66;78.04
15195;BME280;7698;42.478;23.756;2023-04-30T06:09:18;93135.69;;;15.69;80.22
15195;BME280;7698;42.478;23.756;2023-04-30T06:11:45;93132.75;;;15.45;77.81
15195;BME280;7698;42.478;23.756;2023-04-30T06:14:14;93130.66;;;15.32;79.87
15195;BME280;7698;42.478;23.756;2023-04-30T06:16:42;93130.44;;;15.03;77.49
15195;BME280;7698;42.478;23.756;2023-04-30T06:19:10;93135.00;;;14.67;77.74
15195;BME280;7698;42.478;23.756;2023-04-30T06:21:37;93129.56;;;14.26;79.65
15195;BME280;7698;42.478;23.756;2023-04-30T06:24:05;93131.13;;;14.02;82.67
15195;BME280;7698;42.478;23.756;2023-04-30T06:26:32;93126.28;;;13.94;84.69
15195;BME280;7698;42.478;23.756;2023-04-30T06:28:59;93126.81;;;13.91;85.54
15195;BME280;7698;42.478;23.756;2023-04-30T06:31:26;93124.69;;;13.93;86.29
15195;BME280;7698;42.478;23.756;2023-04-30T06:33:53;93126.28;;;13.94;86.03
15195;BME280;7698;42.478;23.756;2023-04-30T06:36:21;93131.66;;;13.99;85.46
15195;BME280;7698;42.478;23.756;2023-04-30T06:38:48;93132.78;;;14.13;85.64
15195;BME280;7698;42.478;23.756;2023-04-30T06:41:15;93133.88;;;14.37;84.10
15195;BME280;7698;42.478;23.756;2023-04-30T06:43:42;93133.38;;;14.50;81.68
15195;BME280;7698;42.478;23.756;2023-04-30T06:46:10;93130.97;;;14.79;82.41
15195;BME280;7698;42.478;23.756;2023-04-30T06:48:37;93133.94;;;14.88;80.71
15195;BME280;7698;42.478;23.756;2023-04-30T06:51:04;93123.66;;;15.26;79.88
15195;BME280;7698;42.478;23.756;2023-04-30T06:53:33;93134.38;;;15.46;79.34
15195;BME280;7698;42.478;23.756;2023-04-30T06:56:00;93141.09;;;15.59;79.14
15195;BME280;7698;42.478;23.756;2023-04-30T06:58:28;93138.84;;;15.86;78.96
15195;BME280;7698;42.478;23.756;2023-04-30T07:00:55;93133.44;;;15.91;76.06
15195;BME280;7698;42.478;23.756;2023-04-30T07:03:22;93130.41;;;16.03;75.65
15195;BME280;7698;42.478;23.756;2023-04-30T07:05:49;93134.38;;;16.15;73.21
15195;BME280;7698;42.478;23.756;2023-04-30T07:08:18;93131.91;;;16.24;73.19
15195;BME280;7698;42.478;23.756;2023-04-30T07:10:47;93122.66;;;16.40;73.37
15195;BME280;7698;42.478;23.756;2023-04-30T07:13:15;93127.94;;;16.55;73.33
15195;BME280;7698;42.478;23.756;2023-04-30T07:15:42;93139.66;;;16.80;73.51
15195;BME280;7698;42.478;23.756;2023-04-30T07:18:10;93130.78;;;16.74;71.19
15195;BME280;7698;42.478;23.756;2023-04-30T07:20:37;93140.88;;;16.64;71.39
15195;BME280;7698;42.478;23.756;2023-04-30T07:23:04;93138.78;;;16.45;71.16
15195;BME280;7698;42.478;23.756;2023-04-30T07:25:31;93140.28;;;16.17;70.33
15195;BME280;7698;42.478;23.756;2023-04-30T07:28:00;93146.56;;;16.03;72.90
15195;BME280;7698;42.478;23.756;2023-04-30T07:30:27;93141.97;;;16.08;73.42
15195;BME280;7698;42.478;23.756;2023-04-30T07:32:55;93140.66;;;16.45;74.88
15195;BME280;7698;42.478;23.756;2023-04-30T07:35:22;93145.88;;;17.38;73.57
15195;BME280;7698;42.478;23.756;2023-04-30T07:37:49;93153.63;;;18.40;67.32
15195;BME280;7698;42.478;23.756;2023-04-30T07:40:16;93162.50;;;19.02;61.34
15195;BME280;7698;42.478;23.756;2023-04-30T07:42:43;93164.78;;;19.60;60.37
15195;BME280;7698;42.478;23.756;2023-04-30T07:45:12;93161.41;;;20.23;55.67
15195;BME280;7698;42.478;23.756;2023-04-30T07:47:39;93160.28;;;21.01;53.64
15195;BME280;7698;42.478;23.756;2023-04-30T07:50:06;93163.47;;;21.70;52.61
15195;BME280;7698;42.478;23.756;2023-04-30T07:52:34;93166.38;;;22.53;50.24
15195;BME280;7698;42.478;23.756;2023-04-30T07:55:00;93175.75;;;23.29;47.95
15195;BME280;7698;42.478;23.756;2023-04-30T07:57:27;93174.03;;;23.25;42.31
15195;BME280;7698;42.478;23.756;2023-04-30T07:59:54;93179.53;;;22.59;40.66
15195;BME280;7698;42.478;23.756;2023-04-30T08:02:23;93171.69;;;22.10;42.28
15195;BME280;7698;42.478;23.756;2023-04-30T08:04:50;93161.47;;;21.84;41.14
15195;BME280;7698;42.478;23.756;2023-04-30T08:07:17;93162.34;;;21.71;42.23
15195;BME280;7698;42.478;23.756;2023-04-30T08:09:45;93159.09;;;21.91;44.14
15195;BME280;7698;42.478;23.756;2023-04-30T08:12:12;93168.66;;;22.20;44.25
15195;BME280;7698;42.478;23.756;2023-04-30T08:14:39;93162.13;;;22.21;43.47
15195;BME280;7698;42.478;23.756;2023-04-30T08:17:06;93167.84;;;22.11;43.61
15195;BME280;7698;42.478;23.756;2023-04-30T08:19:35;93164.16;;;22.07;43.88
15195;BME280;7698;42.478;23.756;2023-04-30T08:22:02;93169.75;;;21.79;43.10
15195;BME280;7698;42.478;23.756;2023-04-30T08:24:29;93168.16;;;21.78;44.89
15195;BME280;7698;42.478;23.756;2023-04-30T08:26:56;93167.03;;;21.79;43.82
15195;BME280;7698;42.478;23.756;2023-04-30T08:29:24;93170.97;;;21.42;43.22
15195;BME280;7698;42.478;23.756;2023-04-30T08:31:52;93159.97;;;21.03;43.35
15195;BME280;7698;42.478;23.756;2023-04-30T08:34:19;93170.72;;;20.72;44.48
15195;BME280;7698;42.478;23.756;2023-04-30T08:36:47;93162.13;;;20.42;44.76
15195;BME280;7698;42.478;23.756;2023-04-30T08:39:14;93169.44;;;20.28;45.65
15195;BME280;7698;42.478;23.756;2023-04-30T08:41:45;93173.06;;;20.10;45.53
15195;BME280;7698;42.478;23.756;2023-04-30T08:44:18;93169.13;;;20.02;45.73
15195;BME280;7698;42.478;23.756;2023-04-30T08:46:48;93167.94;;;19.81;45.10
15195;BME280;7698;42.478;23.756;2023-04-30T08:49:19;93163.41;;;19.76;46.82
15195;BME280;7698;42.478;23.756;2023-04-30T08:51:48;93168.13;;;19.84;46.74
15195;BME280;7698;42.478;23.756;2023-04-30T08:54:17;93166.72;;;20.01;46.55
15195;BME280;7698;42.478;23.756;2023-04-30T08:56:44;93164.50;;;20.30;45.77
15195;BME280;7698;42.478;23.756;2023-04-30T08:59:12;93170.22;;;20.70;45.13
15195;BME280;7698;42.478;23.756;2023-04-30T09:01:40;93166.31;;;20.98;44.24
15195;BME280;7698;42.478;23.756;2023-04-30T09:04:08;93159.28;;;21.19;44.04
15195;BME280;7698;42.478;23.756;2023-04-30T09:06:36;93166.13;;;21.31;43.95
15195;BME280;7698;42.478;23.756;2023-04-30T09:09:10;93161.56;;;21.71;44.20
15195;BME280;7698;42.478;23.756;2023-04-30T09:11:38;93157.28;;;22.66;43.61
15195;BME280;7698;42.478;23.756;2023-04-30T09:14:07;93167.78;;;23.24;41.15
15195;BME280;7698;42.478;23.756;2023-04-30T09:16:46;93152.78;;;23.82;41.19
15195;BME280;7698;42.478;23.756;2023-04-30T09:19:25;93162.13;;;23.73;38.64
15195;BME280;7698;42.478;23.756;2023-04-30T09:21:54;93155.41;;;23.10;38.47
15195;BME280;7698;42.478;23.756;2023-04-30T09:24:24;93152.97;;;22.65;39.52
15195;BME280;7698;42.478;23.756;2023-04-30T09:26:52;93156.16;;;22.67;42.23
15195;BME280;7698;42.478;23.756;2023-04-30T09:29:20;93159.97;;;22.40;42.01
15195;BME280;7698;42.478;23.756;2023-04-30T09:31:47;93146.97;;;21.98;41.83
15195;BME280;7698;42.478;23.756;2023-04-30T09:34:15;93156.66;;;21.50;42.36
15195;BME280;7698;42.478;23.756;2023-04-30T09:36:52;93157.75;;;21.05;42.77
15195;BME280;7698;42.478;23.756;2023-04-30T09:39:21;93153.44;;;20.54;43.10
15195;BME280;7698;42.478;23.756;2023-04-30T09:41:50;93158.91;;;20.13;44.99
15195;BME280;7698;42.478;23.756;2023-04-30T09:44:28;93156.78;;;19.82;47.21
15195;BME280;7698;42.478;23.756;2023-04-30T09:46:56;93151.53;;;19.58;47.26
15195;BME280;7698;42.478;23.756;2023-04-30T09:49:23;93155.94;;;19.22;47.20
15195;BME280;7698;42.478;23.756;2023-04-30T09:51:55;93155.91;;;19.08;48.15
15195;BME280;7698;42.478;23.756;2023-04-30T09:54:25;93153.50;;;19.39;48.66
15195;BME280;7698;42.478;23.756;2023-04-30T09:56:55;93158.28;;;20.02;49.71
15195;BME280;7698;42.478;23.756;2023-04-30T09:59:27;93149.66;;;21.13;49.15
15195;BME280;7698;42.478;23.756;2023-04-30T10:01:57;93152.03;;;22.13;45.61
15195;BME280;7698;42.478;23.756;2023-04-30T10:04:28;93148.03;;;22.84;42.22
15195;BME280;7698;42.478;23.756;2023-04-30T10:06:57;93151.25;;;23.21;39.21
15195;BME280;7698;42.478;23.756;2023-04-30T10:09:30;93148.03;;;23.45;37.75
15195;BME280;7698;42.478;23.756;2023-04-30T10:12:07;93145.63;;;23.35;37.90
15195;BME280;7698;42.478;23.756;2023-04-30T10:14:38;93141.78;;;23.53;38.34
15195;BME280;7698;42.478;23.756;2023-04-30T10:17:10;93146.41;;;23.52;35.86
15195;BME280;7698;42.478;23.756;2023-04-30T10:19:45;93136.81;;;23.55;37.56
15195;BME280;7698;42.478;23.756;2023-04-30T10:22:13;93130.78;;;23.87;36.82
15195;BME280;7698;42.478;23.756;2023-04-30T10:24:42;93142.69;;;24.21;38.26
15195;BME280;7698;42.478;23.756;2023-04-30T10:27:11;93123.00;;;23.69;35.61
15195;BME280;7698;42.478;23.756;2023-04-30T10:29:39;93118.59;;;22.95;36.99
15195;BME280;7698;42.478;23.756;2023-04-30T10:32:09;93119.56;;;22.25;37.63
15195;BME280;7698;42.478;23.756;2023-04-30T10:34:49;93120.28;;;21.60;38.37
15195;BME280;7698;42.478;23.756;2023-04-30T10:37:32;93109.00;;;21.22;39.68
15195;BME280;7698;42.478;23.756;2023-04-30T10:40:01;93103.06;;;21.20;40.80
15195;BME280;7698;42.478;23.756;2023-04-30T10:42:33;93092.75;;;21.08;40.47
15195;BME280;7698;42.478;23.756;2023-04-30T10:45:02;93089.81;;;20.74;41.50
15195;BME280;7698;42.478;23.756;2023-04-30T10:47:30;93089.16;;;20.54;42.90
15195;BME280;7698;42.478;23.756;2023-04-30T10:50:01;93086.88;;;20.48;43.46
15195;BME280;7698;42.478;23.756;2023-04-30T10:52:29;93096.66;;;20.21;43.01
15195;BME280;7698;42.478;23.756;2023-04-30T10:54:56;93103.41;;;19.97;44.02
15195;BME280;7698;42.478;23.756;2023-04-30T10:57:28;93106.13;;;19.69;44.99
15195;BME280;7698;42.478;23.756;2023-04-30T11:00:18;93104.28;;;19.51;46.27
15195;BME280;7698;42.478;23.756;2023-04-30T11:02:46;93104.22;;;19.23;45.20
15195;BME280;7698;42.478;23.756;2023-04-30T11:05:15;93107.03;;;18.86;44.52
15195;BME280;7698;42.478;23.756;2023-04-30T11:07:46;93112.56;;;18.57;45.16
15195;BME280;7698;42.478;23.756;2023-04-30T11:10:15;93115.84;;;18.35;46.60
15195;BME280;7698;42.478;23.756;2023-04-30T11:12:47;93104.16;;;18.40;47.67
15195;BME280;7698;42.478;23.756;2023-04-30T11:15:18;93112.66;;;18.71;49.02
15195;BME280;7698;42.478;23.756;2023-04-30T11:17:47;93123.97;;;19.84;51.02
15195;BME280;7698;42.478;23.756;2023-04-30T11:20:18;93114.72;;;20.98;47.15
15195;BME280;7698;42.478;23.756;2023-04-30T11:22:46;93127.81;;;21.41;43.72
15195;BME280;7698;42.478;23.756;2023-04-30T11:25:18;93131.34;;;21.72;43.96
15195;BME280;7698;42.478;23.756;2023-04-30T11:27:47;93133.56;;;22.01;43.30
15195;BME280;7698;42.478;23.756;2023-04-30T11:30:16;93135.59;;;21.87;42.58
15195;BME280;7698;42.478;23.756;2023-04-30T11:32:46;93134.63;;;21.30;41.96
15195;BME280;7698;42.478;23.756;2023-04-30T11:35:16;93144.28;;;20.64;42.99
15195;BME280;7698;42.478;23.756;2023-04-30T11:37:44;93144.34;;;20.09;44.06
15195;BME280;7698;42.478;23.756;2023-04-30T11:40:13;93151.38;;;19.69;43.87
15195;BME280;7698;42.478;23.756;2023-04-30T11:42:42;93153.28;;;19.36;45.07
15195;BME280;7698;42.478;23.756;2023-04-30T11:45:12;93165.72;;;19.04;45.23
15195;BME280;7698;42.478;23.756;2023-04-30T11:47:43;93170.25;;;18.90;46.61
15195;BME280;7698;42.478;23.756;2023-04-30T11:50:13;93163.41;;;18.79;47.73
15195;BME280;7698;42.478;23.756;2023-04-30T11:52:41;93160.75;;;18.74;48.66
15195;BME280;7698;42.478;23.756;2023-04-30T11:55:15;93173.34;;;18.41;49.85
15195;BME280;7698;42.478;23.756;2023-04-30T11:57:43;93173.50;;;18.07;51.28
15195;BME280;7698;42.478;23.756;2023-04-30T12:00:13;93168.47;;;17.76;53.30
15195;BME280;7698;42.478;23.756;2023-04-30T12:02:41;93175.78;;;17.47;57.40
15195;BME280;7698;42.478;23.756;2023-04-30T12:05:16;93178.06;;;17.30;62.13
15195;BME280;7698;42.478;23.756;2023-04-30T12:07:47;93177.56;;;17.27;65.72
15195;BME280;7698;42.478;23.756;2023-04-30T12:10:18;93184.75;;;17.37;66.97
15195;BME280;7698;42.478;23.756;2023-04-30T12:12:46;93183.03;;;18.04;69.86
15195;BME280;7698;42.478;23.756;2023-04-30T12:15:15;93171.03;;;18.53;66.08
15195;BME280;7698;42.478;23.756;2023-04-30T12:17:43;93180.47;;;18.93;64.74
15195;BME280;7698;42.478;23.756;2023-04-30T12:20:12;93187.97;;;19.34;63.67
15195;BME280;7698;42.478;23.756;2023-04-30T12:22:41;93188.28;;;19.65;59.18
15195;BME280;7698;42.478;23.756;2023-04-30T12:25:12;93202.47;;;20.16;58.26
15195;BME280;7698;42.478;23.756;2023-04-30T12:27:41;93196.47;;;20.47;54.26
15195;BME280;7698;42.478;23.756;2023-04-30T12:30:12;93183.19;;;20.32;53.02
15195;BME280;7698;42.478;23.756;2023-04-30T12:32:41;93181.91;;;20.43;53.70
15195;BME280;7698;42.478;23.756;2023-04-30T12:35:12;93184.94;;;20.41;51.38
15195;BME280;7698;42.478;23.756;2023-04-30T12:37:46;93174.28;;;20.45;51.46
15195;BME280;7698;42.478;23.756;2023-04-30T12:40:16;93163.50;;;20.53;50.60
15195;BME280;7698;42.478;23.756;2023-04-30T12:42:44;93166.19;;;21.03;50.51
15195;BME280;7698;42.478;23.756;2023-04-30T12:45:42;93155.56;;;20.93;48.25
15195;BME280;7698;42.478;23.756;2023-04-30T12:48:10;93159.06;;;20.71;47.62
15195;BME280;7698;42.478;23.756;2023-04-30T12:50:38;93157.88;;;20.36;47.24
15195;BME280;7698;42.478;23.756;2023-04-30T12:53:07;93155.59;;;19.88;48.43
15195;BME280;7698;42.478;23.756;2023-04-30T12:55:36;93157.25;;;19.57;49.73
15195;BME280;7698;42.478;23.756;2023-04-30T12:58:06;93156.78;;;19.36;50.12
15195;BME280;7698;42.478;23.756;2023-04-30T13:00:47;93149.34;;;19.28;51.16
15195;BME280;7698;42.478;23.756;2023-04-30T13:03:16;93147.94;;;19.31;51.00
15195;BME280;7698;42.478;23.756;2023-04-30T13:05:50;93150.97;;;19.43;49.78
15195;BME280;7698;42.478;23.756;2023-04-30T13:08:20;93144.38;;;19.49;49.50
15195;BME280;7698;42.478;23.756;2023-04-30T13:10:48;93145.66;;;19.38;48.55